createdAt,value
2018-09-12T00:01:42.970Z,56.44
2018-09-12T00:05:46.560Z,56.64
2018-09-12T00:09:50.169Z,56.85
2018-09-12T00:13:53.681Z,57.32
2018-09-12T00:17:57.163Z,57.83
2018-09-12T00:22:00.832Z,57.93
2018-09-12T00:26:04.424Z,57.99
2018-09-12T00:30:08.179Z,57.44
2018-09-12T00:34:11.765Z,58.05
2018-09-12T00:38:15.280Z,58.10
2018-09-12T00:42:18.807Z,58.05
2018-09-12T00:46:22.480Z,57.80
2018-09-12T00:50:26.020Z,57.80
2018-09-12T00:54:29.695Z,58.75
2018-09-12T00:58:33.219Z,57.98
2018-09-12T01:02:36.722Z,58.17
2018-09-12T01:06:40.211Z,58.03
2018-09-12T01:10:43.784Z,58.39
2018-09-12T01:14:47.479Z,58.70
2018-09-12T01:18:51.365Z,58.44
2018-09-12T01:22:54.816Z,59.26
2018-09-12T01:26:59.408Z,58.56
2018-09-12T01:31:03.259Z,58.90
2018-09-12T01:35:06.739Z,59.35
2018-09-12T01:39:11.070Z,59.15
2018-09-12T01:43:14.635Z,59.19
2018-09-12T01:47:18.180Z,59.64
2018-09-12T01:51:21.747Z,59.53
2018-09-12T01:55:25.592Z,60.30
2018-09-12T01:59:29.060Z,60.15
2018-09-12T02:03:32.566Z,60.09
2018-09-12T02:07:37.194Z,60.39
2018-09-12T02:11:40.908Z,60.27
2018-09-12T02:15:44.451Z,61.07
2018-09-12T02:19:48.026Z,60.83
2018-09-12T02:23:51.628Z,61.53
2018-09-12T02:27:55.342Z,61.21
2018-09-12T02:31:58.849Z,61.95
2018-09-12T02:36:08.103Z,62.00
2018-09-12T02:40:11.575Z,61.97
2018-09-12T02:44:15.181Z,62.14
2018-09-12T02:48:18.596Z,61.75
2018-09-12T02:52:22.147Z,62.40
2018-09-12T02:56:25.699Z,62.15
2018-09-12T03:00:29.380Z,62.65
2018-09-12T03:04:47.137Z,62.63
2018-09-12T03:08:50.635Z,62.24
2018-09-12T03:12:54.090Z,62.90
2018-09-12T03:16:57.536Z,63.35
2018-09-12T03:21:02.417Z,63.53
2018-09-12T03:25:06.448Z,63.59
2018-09-12T03:29:09.942Z,63.54
2018-09-12T03:33:14.807Z,63.80
2018-09-12T03:37:18.923Z,63.79
2018-09-12T03:41:23.311Z,63.78
2018-09-12T03:45:26.891Z,63.82
2018-09-12T03:49:30.531Z,63.86
2018-09-12T03:53:33.969Z,64.04
2018-09-12T03:57:37.700Z,63.79
2018-09-12T04:01:41.300Z,63.72
2018-09-12T04:05:44.942Z,64.46
2018-09-12T04:09:48.478Z,63.96
2018-09-12T04:13:53.288Z,64.73
2018-09-12T04:17:56.779Z,65.08
2018-09-12T04:22:00.436Z,64.83
2018-09-12T04:26:05.825Z,64.43
2018-09-12T04:30:09.422Z,64.67
2018-09-12T04:34:13.065Z,65.33
2018-09-12T04:38:16.558Z,65.25
2018-09-12T04:42:21.587Z,65.52
2018-09-12T04:46:25.080Z,64.80
2018-09-12T04:50:28.623Z,64.95
2018-09-12T04:54:32.307Z,65.06
2018-09-12T04:58:35.896Z,65.23
2018-09-12T05:02:39.428Z,65.20
2018-09-12T05:06:43.075Z,64.85
2018-09-12T05:10:46.745Z,65.06
2018-09-12T05:14:50.739Z,65.88
2018-09-12T05:18:54.279Z,65.93
2018-09-12T05:22:57.718Z,65.24
2018-09-12T05:27:01.438Z,65.85
2018-09-12T05:31:05.167Z,65.22
2018-09-12T05:35:08.788Z,65.50
2018-09-12T05:39:12.420Z,65.38
2018-09-12T05:43:15.936Z,66.26
2018-09-12T05:47:19.599Z,66.13
2018-09-12T05:51:23.135Z,65.81
2018-09-12T05:55:26.823Z,66.34
2018-09-12T05:59:30.447Z,65.65
2018-09-12T06:03:34.366Z,66.31
2018-09-12T06:07:37.903Z,65.72
2018-09-12T06:11:41.417Z,66.37
2018-09-12T06:15:45.064Z,66.28
2018-09-12T06:19:48.666Z,65.74
2018-09-12T06:23:52.168Z,65.39
2018-09-12T06:27:55.778Z,65.47
2018-09-12T06:31:59.387Z,65.66
2018-09-12T06:36:02.925Z,67.09
2018-09-12T06:40:06.739Z,67.16
2018-09-12T06:44:10.292Z,67.13
2018-09-12T06:48:15.027Z,67.31
2018-09-12T06:52:20.563Z,67.15
2018-09-12T06:56:24.188Z,66.98
2018-09-12T07:00:27.792Z,66.53
2018-09-12T07:04:33.524Z,65.87
2018-09-12T07:08:37.059Z,66.09
2018-09-12T07:12:40.537Z,64.61
2018-09-12T07:16:44.050Z,65.00
2018-09-12T07:20:47.562Z,64.93
2018-09-12T07:24:51.593Z,64.17
2018-09-12T07:28:55.343Z,64.48
2018-09-12T07:32:58.870Z,63.72
2018-09-12T07:37:02.756Z,62.84
2018-09-12T07:41:06.305Z,62.27
2018-09-12T07:49:12.269Z,61.22
2018-09-12T07:53:16.179Z,62.13
2018-09-12T07:57:19.764Z,61.12
2018-09-12T08:01:23.736Z,60.35
2018-09-12T08:05:27.275Z,60.13
2018-09-12T08:09:30.824Z,60.59
2018-09-12T08:13:34.407Z,60.78
2018-09-12T08:17:38.003Z,60.95
2018-09-12T08:21:41.513Z,60.10
2018-09-12T08:25:45.141Z,60.04
2018-09-12T08:29:48.684Z,59.53
2018-09-12T08:33:53.360Z,59.36
2018-09-12T08:37:57.020Z,57.87
2018-09-12T08:42:01.192Z,56.98
2018-09-12T08:46:04.820Z,56.22
2018-09-12T08:50:08.965Z,56.20
2018-09-12T08:54:12.886Z,55.90
2018-09-12T08:58:16.950Z,55.65
2018-09-12T09:02:20.704Z,54.28
2018-09-12T09:06:24.435Z,53.46
2018-09-12T09:10:28.129Z,53.18
2018-09-12T09:14:31.570Z,52.62
2018-09-12T09:18:35.168Z,52.40
2018-09-12T09:22:38.749Z,53.23
2018-09-12T09:26:43.415Z,53.26
2018-09-12T09:30:48.062Z,52.72
2018-09-12T09:34:51.597Z,51.79
2018-09-12T09:38:55.218Z,51.46
2018-09-12T09:42:58.843Z,51.68
2018-09-12T09:47:02.427Z,50.37
2018-09-12T09:59:28.911Z,48.50
2018-09-12T10:03:37.508Z,48.50
2018-09-12T10:07:46.986Z,48.32
2018-09-12T10:11:50.532Z,47.07
2018-09-12T10:15:54.260Z,47.00
2018-09-12T10:19:58.142Z,47.16
2018-09-12T10:24:01.669Z,46.35
2018-09-12T10:28:05.348Z,46.66
2018-09-12T10:32:08.966Z,45.34
2018-09-12T10:36:12.430Z,45.08
2018-09-12T10:40:16.163Z,44.54
2018-09-12T10:44:19.887Z,44.22
2018-09-12T10:48:23.503Z,43.88
2018-09-12T10:52:27.102Z,43.93
2018-09-12T10:56:30.793Z,42.79
2018-09-12T11:00:34.440Z,42.65
2018-09-12T11:04:37.995Z,40.22
2018-09-12T11:08:41.822Z,42.04
2018-09-12T11:12:45.945Z,40.99
2018-09-12T11:16:49.510Z,40.73
2018-09-12T11:20:53.111Z,40.59
2018-09-12T11:24:57.260Z,40.65
2018-09-12T11:29:00.747Z,41.16
2018-09-12T11:33:04.280Z,40.13
2018-09-12T11:37:08.055Z,40.17
2018-09-12T11:41:11.698Z,39.70
2018-09-12T11:45:16.635Z,40.09
2018-09-12T11:49:20.154Z,40.17
2018-09-12T11:53:24.831Z,40.47
2018-09-12T11:57:28.580Z,39.75
2018-09-12T12:01:32.212Z,39.80
2018-09-12T12:05:35.919Z,39.74
2018-09-12T12:09:39.675Z,39.68
2018-09-12T12:13:43.212Z,39.82
2018-09-12T12:17:47.115Z,39.17
2018-09-12T12:21:50.671Z,39.26
2018-09-12T12:25:54.409Z,40.08
2018-09-12T12:29:57.939Z,39.17
2018-09-12T12:34:04.108Z,38.92
2018-09-12T12:38:08.285Z,39.32
2018-09-12T12:42:11.803Z,38.53
2018-09-12T12:46:15.262Z,38.54
2018-09-12T12:50:22.138Z,36.81
2018-09-12T12:54:25.721Z,38.28
2018-09-12T12:58:29.394Z,37.49
2018-09-12T13:02:32.993Z,37.67
2018-09-12T13:06:36.560Z,37.63
2018-09-12T13:10:40.147Z,37.67
2018-09-12T13:14:44.073Z,37.29
2018-09-12T13:18:47.795Z,36.80
2018-09-12T13:22:51.319Z,36.84
2018-09-12T13:26:54.798Z,37.19
2018-09-12T13:30:58.495Z,37.49
2018-09-12T13:35:03.669Z,38.10
2018-09-12T13:39:11.954Z,37.48
2018-09-12T13:43:15.647Z,37.67
2018-09-12T13:47:20.281Z,36.91
2018-09-12T13:51:23.893Z,37.32
2018-09-12T13:55:27.734Z,36.88
2018-09-12T13:59:31.307Z,37.54
2018-09-12T14:03:34.977Z,36.86
2018-09-12T14:07:38.543Z,37.13
2018-09-12T14:11:43.274Z,37.80
2018-09-12T14:15:46.866Z,37.03
2018-09-12T14:19:50.665Z,36.78
2018-09-12T14:23:54.156Z,37.10
2018-09-12T14:27:58.915Z,38.22
2018-09-12T14:32:02.653Z,38.63
2018-09-12T14:36:07.518Z,38.28
2018-09-12T14:40:11.073Z,38.63
2018-09-12T14:44:14.796Z,38.18
2018-09-12T14:48:18.401Z,38.88
2018-09-12T14:52:22.034Z,37.90
2018-09-12T14:56:25.687Z,37.96
2018-09-12T15:00:29.630Z,38.23
2018-09-12T15:04:33.263Z,38.90
2018-09-12T15:08:39.218Z,38.90
2018-09-12T15:12:43.056Z,37.80
2018-09-12T15:16:46.947Z,38.89
2018-09-12T15:20:50.482Z,38.32
2018-09-12T15:24:54.287Z,38.95
2018-09-12T15:28:57.824Z,39.17
2018-09-12T15:33:02.138Z,38.53
2018-09-12T15:37:06.207Z,39.32
2018-09-12T15:41:09.943Z,38.37
2018-09-12T15:45:13.415Z,39.14
2018-09-12T15:49:19.719Z,38.92
2018-09-12T15:53:23.558Z,39.52
2018-09-12T15:57:27.158Z,39.99
2018-09-12T16:01:30.727Z,39.97
2018-09-12T16:05:34.349Z,39.30
2018-09-12T16:09:38.277Z,39.37
2018-09-12T16:13:42.948Z,39.85
2018-09-12T16:17:46.484Z,39.35
2018-09-12T16:21:50.059Z,39.38
2018-09-12T16:25:53.728Z,39.67
2018-09-12T16:29:57.315Z,40.90
2018-09-12T16:34:01.282Z,40.10
2018-09-12T16:38:05.262Z,41.17
2018-09-12T16:42:08.771Z,40.57
2018-09-12T16:46:12.652Z,40.55
2018-09-12T16:50:16.629Z,41.53
2018-09-12T16:54:20.243Z,42.13
2018-09-12T16:58:24.127Z,42.05
2018-09-12T17:02:27.776Z,42.17
2018-09-12T17:06:31.383Z,41.68
2018-09-12T17:10:35.031Z,42.19
2018-09-12T17:14:38.606Z,41.37
2018-09-12T17:18:42.764Z,41.56
2018-09-12T17:22:46.387Z,41.50
2018-09-12T17:26:50.002Z,42.70
2018-09-12T17:30:54.114Z,43.06
2018-09-12T17:34:58.239Z,43.72
2018-09-12T17:39:02.317Z,43.23
2018-09-12T17:43:07.776Z,44.15
2018-09-12T17:47:11.506Z,44.32
2018-09-12T17:51:15.191Z,44.76
2018-09-12T17:55:18.695Z,44.21
2018-09-12T17:59:22.678Z,44.92
2018-09-12T18:03:26.782Z,45.30
2018-09-12T18:07:30.607Z,45.48
2018-09-12T18:11:34.142Z,44.90
2018-09-12T18:15:38.151Z,45.83
2018-09-12T18:19:41.797Z,46.12
2018-09-12T18:23:45.510Z,46.49
2018-09-12T18:27:49.059Z,46.50
2018-09-12T18:31:52.938Z,46.84
2018-09-12T18:35:56.870Z,47.77
2018-09-12T18:40:00.426Z,48.08
2018-09-12T18:44:05.700Z,48.24
2018-09-12T18:48:10.971Z,48.69
2018-09-12T18:52:14.728Z,48.72
2018-09-12T18:56:18.392Z,48.83
2018-09-12T19:00:22.065Z,50.00
2018-09-12T19:04:25.701Z,50.08
2018-09-12T19:08:29.254Z,50.71
2018-09-12T19:12:32.845Z,50.44
2018-09-12T19:16:36.363Z,50.96
2018-09-12T19:20:41.463Z,50.71
2018-09-12T19:24:45.073Z,51.56
2018-09-12T19:28:48.863Z,51.75
2018-09-12T19:32:52.782Z,51.81
2018-09-12T19:36:57.119Z,52.11
2018-09-12T19:41:00.705Z,52.32
2018-09-12T19:45:04.905Z,52.18
2018-09-12T19:49:08.619Z,51.75
2018-09-12T19:53:12.379Z,52.04
2018-09-12T19:57:15.987Z,53.11
2018-09-12T20:01:19.811Z,52.59
2018-09-12T20:05:23.270Z,52.97
2018-09-12T20:09:27.050Z,53.35
2018-09-12T20:13:30.547Z,53.22
2018-09-12T20:17:34.264Z,53.96
2018-09-12T20:21:37.821Z,53.71
2018-09-12T20:25:42.173Z,53.54
2018-09-12T20:29:46.447Z,54.31
2018-09-12T20:33:50.140Z,54.27
2018-09-12T20:37:53.697Z,55.10
2018-09-12T20:41:57.223Z,54.71
2018-09-12T20:46:01.175Z,55.40
2018-09-12T20:50:04.918Z,54.35
2018-09-12T20:54:08.438Z,54.28
2018-09-12T20:58:12.086Z,54.98
2018-09-12T21:02:16.078Z,54.75
2018-09-12T21:06:19.884Z,55.52
2018-09-12T21:10:23.420Z,56.06
2018-09-12T21:14:27.046Z,55.72
2018-09-12T21:18:30.756Z,56.30
2018-09-12T21:22:34.623Z,56.76
2018-09-12T21:26:38.373Z,56.48
2018-09-12T21:30:41.988Z,56.85
2018-09-12T21:34:45.512Z,56.44
2018-09-12T21:38:49.197Z,57.04
2018-09-12T21:42:53.778Z,57.27
2018-09-12T21:46:57.389Z,57.30
2018-09-12T21:51:02.317Z,56.94
2018-09-12T21:55:05.851Z,57.70
2018-09-12T21:59:09.764Z,57.79
2018-09-12T22:03:14.550Z,57.88
2018-09-12T22:07:18.379Z,58.14
2018-09-12T22:11:22.334Z,58.38
2018-09-12T22:15:25.818Z,58.50
2018-09-12T22:19:29.538Z,58.85
2018-09-12T22:23:34.124Z,59.22
2018-09-12T22:27:38.069Z,58.98
2018-09-12T22:31:41.566Z,59.01
2018-09-12T22:35:45.257Z,58.95
2018-09-12T22:39:48.864Z,59.88
2018-09-12T22:43:54.083Z,60.01
2018-09-12T22:47:57.684Z,59.56
2018-09-12T22:52:01.415Z,59.68
2018-09-12T22:56:05.021Z,60.10
2018-09-12T23:00:09.886Z,60.27
2018-09-12T23:04:13.566Z,61.07
2018-09-12T23:08:17.198Z,60.37
2018-09-12T23:12:20.955Z,60.60
2018-09-12T23:16:24.600Z,61.56
2018-09-12T23:20:28.138Z,61.36
2018-09-12T23:24:31.870Z,61.10
2018-09-12T23:28:35.363Z,61.19
2018-09-12T23:32:38.980Z,61.41
2018-09-12T23:36:42.479Z,61.90
2018-09-12T23:40:46.118Z,62.18
2018-09-12T23:44:49.829Z,62.13
2018-09-12T23:48:53.404Z,62.31
2018-09-12T23:52:57.320Z,62.28
2018-09-12T23:57:00.945Z,62.05
